Tiempo atmosférico en la estación meteorológica de Pontons, Barcelona (630 m.)



Fecha
DESCASC
Temp. máxima en grados centígrados (hora)
DESCASC
Temp. mínima en grados centígrados (hora)
DESCASC
Temp. media en grados centígrados
DESCASC
Racha de viento máxima en m/sg (hora)
DESCASC
Velocidad máxima media en intervalos de 10 minutos(hora)
DESCASC
Precipitaciones diarias en mm
DESCASC
Precipitaciones de 00:00 a 06:00 en mm
DESCASC
Precipitaciones de 06:00 a 12:00 en mm
DESCASC
Precipitaciones de 12:00 a 18:00 en mm
DESCASC
Precipitaciones de 18:00 a 24:00 en mm
DESCASC
17-02-2019 15.7 (14:50) -0.5 (06:20) 7.6 6.94 (15:50) 4.44 (15:40) 0 0 0 0 0
16-02-2019 18.4 (15:20) -0.3 (02:10) 9 5.28 (13:50) 3.61 (21:30) 0 0 0 0 0
15-02-2019 16.3 (14:50) -1.7 (05:40) 7.3 6.39 (10:50) 3.61 (10:50) 0 0 0 0 0
14-02-2019 15.2 (14:50) -1.8 (-00:0) 6.7 5.83 (12:10) 3.33 (16:30) 0 0 0 0 0
13-02-2019 14.6 (15:00) -0.6 (-00:0) 7 5.83 (12:40) 3.89 (12:40) 0 0 0 0 0
12-02-2019 15 (16:00) -0.2 (00:00) 7.4 8.33 (04:00) 5 (10:20) 0 0 0 0 0
11-02-2019 12.2 (16:00) 1.7 (00:00) 6.9 15.28 (04:10) 10 (03:20) 0 0 0 0 0
10-02-2019 13.4 (16:20) 5.5 (00:00) 9.4 21.94 (15:40) 15.56 (15:40) 0 0 0 0 0
09-02-2019 16.4 (15:40) 4.6 (00:00) 10.5 8.89 (03:50) 5.83 (03:50) 0 0 0 0 0
08-02-2019 14 (15:10) 1.9 (00:00) 7.9 9.44 (06:10) 6.94 (06:10) 0 0 0 0 0
07-02-2019 15.1 (13:20) 3.2 (00:00) 9.2 7.78 (09:10) 5 (16:50) 0 0 0 0 0
06-02-2019 17.6 (16:10) 3.6 (00:00) 10.6 6.11 (14:40) 4.17 (21:30) 0 0 0 0 0
05-02-2019 14.9 (14:40) 1.5 (00:00) 8.2 8.89 (12:30) 6.11 (12:30) 0 0 0 0 0
04-02-2019 12.4 (14:10) -0.1 (00:00) 6.1 13.61 (02:50) 7.78 (03:30) 0 0 0 0 0
03-02-2019 7.8 (15:10) -0.5 (-00:0) 3.7 16.11 (14:00) 9.72 (00:10) 0 0 0 0 0
02-02-2019 7.5 (15:30) -0.1 (00:00) 3.7 22.22 (08:40) 15.28 (10:40) 0 0 0 0 0
01-02-2019 11.2 (15:40) 2.4 (00:00) 6.8 15.56 (13:30) 10 (13:40) 3.2 0.6 1.8 0 0.8
31-01-2019 12.4 (16:00) 2.9 (00:00) 7.6 17.22 (13:30) 11.11 (13:40) 0 0 0 0 0
30-01-2019 8 (15:40) 0.5 (00:00) 4.3 20.28 (00:30) 13.33 (14:00) 0 0 0 0 0
29-01-2019 5.7 (15:50) 1.7 (00:00) 3.7 21.39 (23:50) 14.17 (23:50) 0.4 0 0 0 0.4
28-01-2019 10.4 (16:50) 1.6 (00:00) 6 21.39 (09:40) 13.89 (11:10) 0 0 0 0 0
27-01-2019 10.6 (15:30) 2.6 (00:00) 6.6 28.89 (12:30) 19.72 (12:30) 0 0 0 0 0
26-01-2019 14.4 (15:00) 5.5 (00:00) 9.9 13.06 (05:50) 8.33 (11:00) 0 0 0 0 0
25-01-2019 14.6 (15:40) 3 (00:00) 8.8 16.39 (01:10) 9.72 (15:30) 0 0 0 0 0
24-01-2019 7.4 (14:30) 1 (00:00) 4.2 18.61 (14:00) 11.11 (15:30) 0 0 0 0 0
23-01-2019 7 (14:10) 1.7 (00:00) 4.4 17.22 (08:00) 11.11 (05:30) 1 0 1 0 0
22-01-2019 6.2 (15:50) -2.1 (-00:0) 2 16.11 (17:00) 10.83 (17:10) 0 0 0 0 0
21-01-2019 8.4 (15:10) 0.4 (00:00) 4.4 8.89 (16:20) 6.11 (16:20) 0 0 0 0 0
20-01-2019 5.7 (14:10) 1 (00:00) 3.3 8.61 (13:00) 4.72 (12:50) 11 3.8 7 0.2 0
19-01-2019 10.3 (14:50) -1.9 (-00:0) 4.2 7.5 (00:50) 4.44 (00:50) 0 0 0 0 0

Gráficas

Temp. máximas Temp. mínimas Temp. medias Precipitaciones Rachas de viento máximas Velocidades máximas media en intervalos de 10 minutos

Datos horarios

Fecha y hora oficial Temperatura (ºC) Velocidad del viento (km/h) Dirección del viento Racha (km/h) Dirección de racha Precipitación (mm) Presión (hPa) Tendencia (hPa) Humedad (%)
2019-02-17 23:00:00 0.4 8 Noroeste 11 Noroeste 0 -- -- 75
2019-02-17 22:00:00 0.6 8 Noroeste 12 Noroeste 0 -- -- 72
2019-02-17 21:00:00 1.1 7 Noroeste 10 Noroeste 0 -- -- 71
2019-02-17 20:00:00 3.7 6 Noroeste 9 Noroeste 0 -- -- 68
2019-02-17 19:00:00 6.2 3 Oeste 10 Sudoeste 0 -- -- 62
2019-02-17 18:00:00 10.7 6 Sur 14 Oeste 0 -- -- 38
2019-02-17 17:00:00 12.2 10 Sudoeste 22 Sudoeste 0 -- -- 37
2019-02-17 16:00:00 14 14 Sudoeste 25 Oeste 0 -- -- 34
2019-02-17 15:00:00 15.4 11 Sudoeste 20 Sudoeste 0 -- -- 34
2019-02-17 14:00:00 14 10 Sudeste 21 Sudeste 0 -- -- 31
2019-02-17 13:00:00 12.6 13 Sudeste 22 Sudeste 0 -- -- 31
2019-02-17 12:00:00 12.3 13 Sudeste 21 Sudeste 0 -- -- 18
2019-02-17 11:00:00 12.5 7 Sudeste 10 Sudeste 0 -- -- 21
2019-02-17 10:00:00 10.5 2 Sudeste 7 Noroeste 0 -- -- 23
2019-02-17 09:00:00 3.6 7 Noroeste 12 Noroeste 0 -- -- 41
2019-02-17 08:00:00 0.1 10 Noroeste 13 Noroeste 0 -- -- 43
2019-02-17 07:00:00 0.3 10 Noroeste 13 Noroeste 0 -- -- 27
2019-02-17 06:00:00 0.4 11 Noroeste 14 Noroeste 0 -- -- 27
2019-02-17 05:00:00 0.6 11 Noroeste 13 Noroeste 0 -- -- 24
2019-02-17 04:00:00 1.2 11 Noroeste 14 Noroeste 0 -- -- 21
2019-02-17 03:00:00 0.8 13 Noroeste 15 Noroeste 0 -- -- 23
2019-02-17 02:00:00 0.9 12 Noroeste 14 Noroeste 0 -- -- 24
2019-02-17 01:00:00 1.4 12 Noroeste 15 Noroeste 0 -- -- 21
2019-02-17 00:00:00 0.9 12 Noroeste 14 Noroeste 0 -- -- 28
2019-02-16 23:00:00 1.6 10 Noroeste 14 Noroeste 0 -- -- 26
2019-02-16 22:00:00 1.4 10 Noroeste 16 Noroeste 0 -- -- 34
2019-02-16 21:00:00 2.1 10 Noroeste 14 Noroeste 0 -- -- 42
2019-02-16 20:00:00 3.7 10 Noroeste 12 Noroeste 0 -- -- 52
2019-02-16 19:00:00 6.3 8 Noroeste 11 Noroeste 0 -- -- 47
2019-02-16 18:00:00 12.1 4 Oeste 15 Sur 0 -- -- 31
2019-02-16 17:00:00 16.6 9 Sur 15 Sur 0 -- -- 21
2019-02-16 16:00:00 17.7 10 Sur 15 Sudeste 0 -- -- 13
2019-02-16 15:00:00 17.6 8 Sudeste 19 Sudeste 0 -- -- 8
2019-02-16 14:00:00 16.5 8 Sudeste 19 Sudeste 0 -- -- 14
2019-02-16 13:00:00 15.7 9 Sudeste 15 Sudeste 0 -- -- 15
2019-02-16 12:00:00 14.2 7 Sudeste 16 Sudeste 0 -- -- 20
2019-02-16 11:00:00 13.5 9 Sudeste 12 Sudeste 0 -- -- 21
2019-02-16 10:00:00 11.4 0 Calma 10 Noroeste 0 -- -- 35
2019-02-16 09:00:00 4.3 7 Noroeste 13 Noroeste 0 -- -- 51
2019-02-16 08:00:00 0.7 10 Noroeste 14 Noroeste 0 -- -- 56
2019-02-16 07:00:00 1.4 12 Noroeste 15 Noroeste 0 -- -- 51
2019-02-16 06:00:00 2 11 Noroeste 13 Noroeste 0 -- -- 49
2019-02-16 05:00:00 2.5 10 Noroeste 12 Noroeste 0 -- -- 46
2019-02-16 04:00:00 0.4 8 Noroeste 14 Noroeste 0 -- -- 54
2019-02-16 03:00:00 0.8 11 Noroeste 13 Noroeste 0 -- -- 50
2019-02-16 02:00:00 0.1 9 Noroeste 13 Noroeste 0 -- -- 53
2019-02-16 01:00:00 0.9 11 Noroeste 13 Noroeste 0 -- -- 49
2019-02-16 00:00:00 1.8 10 Noroeste 13 Noroeste 0 -- -- 46
2019-02-15 23:00:00 1.4 9 Noroeste 13 Noroeste 0 -- -- 52
2019-02-15 22:00:00 1.1 9 Noroeste 13 Noroeste 0 -- -- 60
2019-02-15 21:00:00 2.2 10 Noroeste 13 Noroeste 0 -- -- 65
2019-02-15 20:00:00 3.1 9 Noroeste 11 Noroeste 0 -- -- 65
2019-02-15 19:00:00 6.2 7 Noroeste 9 Noroeste 0 -- -- 60
2019-02-15 18:00:00 11.8 4 Sudeste 10 Sudoeste 0 -- -- 45
2019-02-15 17:00:00 14.6 8 Sudoeste 15 Sur 0 -- -- 39
2019-02-15 16:00:00 16 9 Sur 22 Sur 0 -- -- 31
2019-02-15 15:00:00 15.2 12 Sudoeste 19 Sudoeste 0 -- -- 29
2019-02-15 14:00:00 15.6 7 Sudeste 19 Sudeste 0 -- -- 26
2019-02-15 13:00:00 14.5 8 Sur 19 Sudoeste 0 -- -- 18
2019-02-15 12:00:00 13 8 Sudoeste 17 Sudoeste 0 -- -- 21
2019-02-15 11:00:00 11.1 12 Sudoeste 23 Sudoeste 0 -- -- 24
2019-02-15 10:00:00 10.1 4 Este 10 Noroeste 0 -- -- 28
2019-02-15 09:00:00 3.5 8 Noroeste 10 Noroeste 0 -- -- 46
2019-02-15 08:00:00 0.2 7 Noroeste 12 Noroeste 0 -- -- 54
2019-02-15 07:00:00 -1.1 9 Noroeste 14 Noroeste 0 -- -- 59
2019-02-15 06:00:00 -0.8 9 Noroeste 14 Noroeste 0 -- -- 60
2019-02-15 05:00:00 -1.2 11 Noroeste 13 Noroeste 0 -- -- 63
2019-02-15 04:00:00 -0.7 9 Noroeste 12 Noroeste 0 -- -- 53
2019-02-15 03:00:00 -0.7 8 Noroeste 13 Noroeste 0 -- -- 49
2019-02-15 02:00:00 -0.9 10 Noroeste 12 Noroeste 0 -- -- 45
2019-02-15 01:00:00 -0.8 10 Noroeste 13 Noroeste 0 -- -- 46
2019-02-15 00:00:00 0 8 Noroeste 13 Noroeste 0 -- -- 45
2019-02-14 23:00:00 -0.1 10 Noroeste 13 Noroeste 0 -- -- 53
2019-02-14 22:00:00 0.7 11 Noroeste 14 Noroeste 0 -- -- 61
2019-02-14 21:00:00 1.5 10 Noroeste 12 Noroeste 0 -- -- 73
2019-02-14 20:00:00 3.1 9 Noroeste 12 Noroeste 0 -- -- 78
2019-02-14 19:00:00 5.7 9 Noroeste 10 Noroeste 0 -- -- 71
2019-02-14 18:00:00 9.7 7 Sudoeste 14 Oeste 0 -- -- 60
2019-02-14 17:00:00 12.8 11 Oeste 19 Sudoeste 0 -- -- 45
2019-02-14 16:00:00 13.4 12 Sudoeste 19 Sudoeste 0 -- -- 40
2019-02-14 15:00:00 14.3 8 Sudoeste 16 Sudoeste 0 -- -- 40
2019-02-14 14:00:00 13 8 Sudeste 18 Sudeste 0 -- -- 45
2019-02-14 13:00:00 11.8 8 Sudeste 21 Sur 0 -- -- 47
2019-02-14 12:00:00 11.2 8 Sudoeste 16 Sudoeste 0 -- -- 38
2019-02-14 11:00:00 9.4 4 Norte 12 Oeste 0 -- -- 48
2019-02-14 10:00:00 6.7 5 Noroeste 11 Noroeste 0 -- -- 74
2019-02-14 09:00:00 1.7 8 Noroeste 10 Noroeste 0 -- -- 90
2019-02-14 08:00:00 -1.6 6 Noroeste 11 Noroeste 0 -- -- 90
2019-02-14 07:00:00 -1.7 6 Noroeste 9 Noroeste 0 -- -- 90
2019-02-14 06:00:00 -1 6 Noroeste 9 Noroeste 0 -- -- 89
2019-02-14 05:00:00 0.7 5 Noroeste 9 Noroeste 0 -- -- 90
2019-02-14 04:00:00 0.5 4 Noroeste 8 Noroeste 0 -- -- 88
2019-02-14 03:00:00 0.4 5 Noroeste 10 Noroeste 0 -- -- 89
2019-02-14 02:00:00 1.1 5 Noroeste 12 Noroeste 0 -- -- 86
2019-02-14 01:00:00 1.1 5 Noroeste 10 Noroeste 0 -- -- 88
2019-02-14 00:00:00 0.4 9 Noroeste 13 Noroeste 0 -- -- 81
2019-02-13 23:00:00 0.3 8 Noroeste 13 Noroeste 0 -- -- 79
2019-02-13 22:00:00 0.5 9 Noroeste 13 Noroeste 0 -- -- 79
2019-02-13 21:00:00 2.2 10 Noroeste 13 Noroeste 0 -- -- 86
2019-02-13 20:00:00 3.2 5 Noroeste 6 Noroeste 0 -- -- 83
2019-02-13 19:00:00 5.6 2 Oeste 14 Sur 0 -- -- 82
2019-02-13 18:00:00 9.1 8 Sur 14 Sudoeste 0 -- -- 65
2019-02-13 17:00:00 12.3 9 Sur 21 Sur 0 -- -- 51
2019-02-13 16:00:00 14 9 Sur 20 Sur 0 -- -- 50
2019-02-13 15:00:00 14.6 10 Sur 18 Sur 0 -- -- 46
2019-02-13 14:00:00 14.2 9 Sur 20 Sudeste 0 -- -- 31
2019-02-13 13:00:00 11.7 11 Sudeste 21 Sudeste 0 -- -- 40
2019-02-13 12:00:00 11 10 Sudeste 17 Sudeste 0 -- -- 41
2019-02-13 11:00:00 10.3 9 Sudeste 16 Sudeste 0 -- -- 37
2019-02-13 10:00:00 10 8 Sudeste 10 Sudeste 0 -- -- 33
2019-02-13 09:00:00 3.3 7 Noroeste 11 Noroeste 0 -- -- 52
2019-02-13 08:00:00 -0.1 9 Noroeste 12 Noroeste 0 -- -- 63
2019-02-13 07:00:00 0.8 7 Noroeste 10 Noroeste 0 -- -- 64
2019-02-13 06:00:00 2.7 3 Noroeste 10 Noroeste 0 -- -- 53
2019-02-13 05:00:00 2 8 Noroeste 11 Noroeste 0 -- -- 47
2019-02-13 04:00:00 2.1 6 Noroeste 12 Noroeste 0 -- -- 51
2019-02-13 03:00:00 5.6 9 Noroeste 14 Noroeste 0 -- -- 39
2019-02-13 02:00:00 2.8 8 Noroeste 13 Noroeste 0 -- -- 53
2019-02-13 01:00:00 3.5 9 Noroeste 14 Noroeste 0 -- -- 50
2019-02-13 00:00:00 3.9 10 Noroeste 13 Noroeste 0 -- -- 51
2019-02-12 23:00:00 2.3 6 Noroeste 9 Noroeste 0 -- -- 64
2019-02-12 22:00:00 2.5 7 Noroeste 9 Noroeste 0 -- -- 66
2019-02-12 21:00:00 3.7 6 Noroeste 11 Noroeste 0 -- -- 60
2019-02-12 20:00:00 4.8 6 Noroeste 13 Noroeste 0 -- -- 55
2019-02-12 19:00:00 5.6 4 Oeste 8 Oeste 0 -- -- 46
2019-02-12 18:00:00 10 6 Oeste 19 Oeste 0 -- -- 31
2019-02-12 17:00:00 12.8 13 Oeste 21 Oeste 0 -- -- 26
2019-02-12 16:00:00 15 6 Noroeste 20 Noroeste 0 -- -- 22
2019-02-12 15:00:00 13.9 7 Oeste 21 Noroeste 0 -- -- 24
2019-02-12 14:00:00 12.8 10 Oeste 24 Oeste 0 -- -- 26
2019-02-12 13:00:00 12.7 6 Noroeste 19 Oeste 0 -- -- 31
2019-02-12 12:00:00 10.1 12 Oeste 22 Oeste 0 -- -- 40
2019-02-12 11:00:00 8.3 13 Oeste 27 Oeste 0 -- -- 46
2019-02-12 10:00:00 7 17 Oeste 25 Oeste 0 -- -- 50
2019-02-12 09:00:00 5.5 10 Oeste 21 Sudoeste 0 -- -- 55
2019-02-12 08:00:00 4.1 15 Oeste 26 Oeste 0 -- -- 58
2019-02-12 07:00:00 3.1 13 Noroeste 20 Oeste 0 -- -- 66
2019-02-12 06:00:00 3.3 8 Sudoeste 26 Sudoeste 0 -- -- 66
2019-02-12 05:00:00 2.1 9 Noroeste 26 Norte 0 -- -- 72
2019-02-12 04:00:00 3.9 17 Noroeste 30 Noroeste 0 -- -- 66
2019-02-12 03:00:00 1.1 0 Calma 11 Noroeste 0 -- -- 84
2019-02-12 02:00:00 0.4 5 Noroeste 10 Noroeste 0 -- -- 83
2019-02-12 01:00:00 0.8 7 Noroeste 10 Noroeste 0 -- -- 78
2019-02-12 00:00:00 1.7 6 Noroeste 12 Este 0 -- -- 73
2019-02-11 23:00:00 4.4 9 Este 16 Este 0 -- -- 66
2019-02-11 22:00:00 4.9 2 Oeste 9 Noroeste 0 -- -- 62
2019-02-11 21:00:00 4.5 2 Sudoeste 15 Noroeste 0 -- -- 63
2019-02-11 20:00:00 3.6 7 Noroeste 9 Noroeste 0 -- -- 66
2019-02-11 19:00:00 6.4 4 Este 15 Noroeste 0 -- -- 55
2019-02-11 18:00:00 9.6 5 Noroeste 22 Noroeste 0 -- -- 42
2019-02-11 17:00:00 11.7 16 Oeste 29 Oeste 0 -- -- 36
2019-02-11 16:00:00 12.2 15 Noroeste 35 Oeste 0 -- -- 35
2019-02-11 15:00:00 11.9 15 Noroeste 32 Oeste 0 -- -- 40
2019-02-11 14:00:00 10.5 24 Noroeste 34 Noroeste 0 -- -- 45
2019-02-11 13:00:00 10.1 17 Oeste 29 Oeste 0 -- -- 45
2019-02-11 12:00:00 9 17 Oeste 28 Oeste 0 -- -- 49
2019-02-11 11:00:00 7.7 6 Norte 24 Noroeste 0 -- -- 52
2019-02-11 10:00:00 5.1 18 Oeste 28 Oeste 0 -- -- 62
2019-02-11 09:00:00 3.6 18 Oeste 25 Oeste 0 -- -- 65
2019-02-11 08:00:00 2.5 6 Oeste 22 Sudoeste 0 -- -- 66
2019-02-11 07:00:00 3.4 9 Oeste 30 Noroeste 0 -- -- 64
2019-02-11 06:00:00 3.6 17 Noroeste 40 Noroeste 0 -- -- 67
2019-02-11 05:00:00 4.3 20 Noroeste 55 Noroeste 0 -- -- 64
2019-02-11 04:00:00 5 36 Noroeste 53 Noroeste 0 -- -- 63
2019-02-11 03:00:00 5.7 24 Noroeste 45 Oeste 0 -- -- 63
2019-02-11 02:00:00 6.6 28 Noroeste 41 Oeste 0 -- -- 63
2019-02-11 01:00:00 6.6 19 Noroeste 29 Oeste 0 -- -- 67
2019-02-11 00:00:00 7.5 15 Noroeste 36 Noroeste 0 -- -- 65
2019-02-10 23:00:00 9.1 24 Oeste 43 Oeste 0 -- -- 59
2019-02-10 22:00:00 10.9 27 Oeste 42 Oeste 0 -- -- 55
2019-02-10 21:00:00 11.4 28 Oeste 43 Noroeste 0 -- -- 57
2019-02-10 20:00:00 11.4 30 Noroeste 42 Noroeste 0 -- -- 57
2019-02-10 19:00:00 11.8 32 Noroeste 52 Noroeste 0 -- -- 56
2019-02-10 18:00:00 12.4 38 Noroeste 59 Oeste 0 -- -- 53
2019-02-10 17:00:00 13.1 35 Noroeste 73 Oeste 0 -- -- 49
2019-02-10 16:00:00 13.2 43 Noroeste 79 Noroeste 0 -- -- 47
2019-02-10 15:00:00 12.8 51 Noroeste 79 Noroeste 0 -- -- 46
2019-02-10 14:00:00 10.4 36 Noroeste 58 Oeste 0 -- -- 51
2019-02-10 13:00:00 10.4 37 Oeste 60 Oeste 0 -- -- 51
2019-02-10 12:00:00 10.3 34 Noroeste 58 Oeste 0 -- -- 53
2019-02-10 11:00:00 10.7 27 Oeste 69 Oeste 0 -- -- 51
2019-02-10 10:00:00 10.1 40 Noroeste 72 Oeste 0 -- -- 51
2019-02-10 09:00:00 9.7 37 Oeste 58 Oeste 0 -- -- 48
2019-02-10 08:00:00 8.4 24 Oeste 39 Oeste 0 -- -- 54
2019-02-10 07:00:00 9.4 23 Oeste 33 Oeste 0 -- -- 47
2019-02-10 06:00:00 8.2 15 Oeste 25 Oeste 0 -- -- 52
2019-02-10 05:00:00 7.6 13 Oeste 24 Oeste 0 -- -- 57
2019-02-10 04:00:00 6.8 12 Oeste 21 Oeste 0 -- -- 61
2019-02-10 03:00:00 6 14 Oeste 21 Oeste 0 -- -- 66
2019-02-10 02:00:00 6.5 15 Oeste 23 Oeste 0 -- -- 63
2019-02-10 01:00:00 7.2 19 Oeste 26 Oeste 0 -- -- 61
2019-02-10 00:00:00 5.9 19 Noroeste 23 Noroeste 0 -- -- 70
2019-02-09 23:00:00 4.6 14 Noroeste 16 Noroeste 0 -- -- 77
2019-02-09 22:00:00 4.9 11 Noroeste 15 Noroeste 0 -- -- 80
2019-02-09 21:00:00 5.8 7 Noroeste 13 Noroeste 0 -- -- 76
2019-02-09 20:00:00 6.8 10 Noroeste 13 Noroeste 0 -- -- 77
2019-02-09 19:00:00 7.6 8 Noroeste 14 Oeste 0 -- -- 75
2019-02-09 18:00:00 10.9 10 Oeste 15 Noroeste 0 -- -- 64
2019-02-09 17:00:00 13.8 6 Sur 17 Sur 0 -- -- 59
2019-02-09 16:00:00 15.5 8 Sudeste 14 Sudeste 0 -- -- 46
2019-02-09 15:00:00 14.9 8 Sudeste 17 Sudeste 0 -- -- 46
2019-02-09 14:00:00 14.7 8 Sudeste 16 Sudeste 0 -- -- 47
2019-02-09 13:00:00 13.8 8 Oeste 15 Noroeste 0 -- -- 42
2019-02-09 12:00:00 12.2 9 Oeste 19 Oeste 0 -- -- 48
2019-02-09 11:00:00 10.4 15 Noroeste 23 Oeste 0 -- -- 55
2019-02-09 10:00:00 9.3 6 Noroeste 13 Noroeste 0 -- -- 59
2019-02-09 09:00:00 7.1 4 Noroeste 9 Noroeste 0 -- -- 68
2019-02-09 08:00:00 6 3 Oeste 15 Norte 0 -- -- 69
2019-02-09 07:00:00 7.9 3 Sudoeste 21 Noroeste 0 -- -- 60
2019-02-09 06:00:00 7.1 15 Noroeste 19 Oeste 0 -- -- 64
2019-02-09 05:00:00 9.5 15 Oeste 30 Noroeste 0 -- -- 53
2019-02-09 04:00:00 9.3 20 Noroeste 32 Noroeste 0 -- -- 54
2019-02-09 03:00:00 8.3 13 Noroeste 22 Noroeste 0 -- -- 56
2019-02-09 02:00:00 9.3 13 Noroeste 18 Oeste 0 -- -- 52
2019-02-09 01:00:00 8.3 11 Oeste 15 Oeste 0 -- -- 55
2019-02-09 00:00:00 8.1 7 Noroeste 12 Oeste 0 -- -- 60
2019-02-08 23:00:00 4.6 6 Noroeste 15 Noroeste 0 -- -- 86
2019-02-08 22:00:00 5.6 11 Noroeste 19 Noroeste 0 -- -- 89
2019-02-08 21:00:00 6.2 13 Noroeste 27 Noroeste 0 -- -- 89
2019-02-08 20:00:00 6.7 18 Noroeste 26 Oeste 0 -- -- 86
2019-02-08 19:00:00 7.6 15 Oeste 25 Sudoeste 0 -- -- 83
2019-02-08 18:00:00 9.4 17 Oeste 26 Oeste 0 -- -- 75
2019-02-08 17:00:00 12.5 14 Oeste 27 Oeste 0 -- -- 60
2019-02-08 16:00:00 14 17 Oeste 32 Oeste 0 -- -- 50
2019-02-08 15:00:00 13.8 20 Oeste 31 Oeste 0 -- -- 49
2019-02-08 14:00:00 12.8 17 Oeste 31 Oeste 0 -- -- 49
2019-02-08 13:00:00 12.4 15 Oeste 29 Oeste 0 -- -- 50
2019-02-08 12:00:00 11.2 16 Oeste 31 Oeste 0 -- -- 54
2019-02-08 11:00:00 10.2 15 Oeste 31 Oeste 0 -- -- 58
2019-02-08 10:00:00 9.2 17 Oeste 27 Oeste 0 -- -- 60
2019-02-08 09:00:00 7.1 9 Oeste 24 Oeste 0 -- -- 68
2019-02-08 08:00:00 5.1 13 Oeste 28 Noroeste 0 -- -- 74
2019-02-08 07:00:00 5.3 21 Noroeste 34 Oeste 0 -- -- 71
2019-02-08 06:00:00 5.1 23 Noroeste 31 Oeste 0 -- -- 71
2019-02-08 05:00:00 4.8 10 Noroeste 24 Oeste 0 -- -- 70
2019-02-08 04:00:00 3.7 15 Noroeste 20 Noroeste 0 -- -- 80
2019-02-08 03:00:00 2.6 5 Noroeste 11 Noroeste 0 -- -- 87
2019-02-08 02:00:00 3.2 7 Noroeste 13 Oeste 0 -- -- 86
2019-02-08 01:00:00 1.9 6 Noroeste 9 Noroeste 0 -- -- 88
2019-02-08 00:00:00 3.3 6 Noroeste 10 Noroeste 0 -- -- 87
2019-02-07 23:00:00 4.2 6 Noroeste 10 Noroeste 0 -- -- 84
2019-02-07 22:00:00 6 4 Este 12 Noroeste 0 -- -- 79
2019-02-07 21:00:00 7.1 8 Noroeste 17 Oeste 0 -- -- 81
2019-02-07 20:00:00 7.2 11 Noroeste 16 Oeste 0 -- -- 72
2019-02-07 19:00:00 8.2 5 Noroeste 11 Noroeste 0 -- -- 70
2019-02-07 18:00:00 10.8 9 Noroeste 27 Oeste 0 -- -- 60
2019-02-07 17:00:00 12.4 17 Oeste 27 Oeste 0 -- -- 54
2019-02-07 16:00:00 14.1 9 Noroeste 23 Oeste 0 -- -- 49
2019-02-07 15:00:00 13 17 Oeste 27 Oeste 0 -- -- 51
2019-02-07 14:00:00 14.9 10 Noroeste 27 Oeste 0 -- -- 48
2019-02-07 13:00:00 14 10 Noroeste 26 Noroeste 0 -- -- 49
2019-02-07 12:00:00 11.9 6 Noroeste 21 Oeste 0 -- -- 62
2019-02-07 11:00:00 10.2 16 Oeste 28 Noroeste 0 -- -- 68
2019-02-07 10:00:00 9.9 10 Oeste 28 Oeste 0 -- -- 69
2019-02-07 09:00:00 8.9 13 Oeste 24 Sudoeste 0 -- -- 71
2019-02-07 08:00:00 7 12 Noroeste 19 Noroeste 0 -- -- 77
2019-02-07 07:00:00 6.3 4 Oeste 16 Oeste 0 -- -- 77
2019-02-07 06:00:00 7.9 7 Oeste 18 Oeste 0 -- -- 76
2019-02-07 05:00:00 7.1 10 Oeste 20 Oeste 0 -- -- 76
2019-02-07 04:00:00 6.7 13 Noroeste 18 Oeste 0 -- -- 77
2019-02-07 03:00:00 6.2 9 Noroeste 12 Noroeste 0 -- -- 79
2019-02-07 02:00:00 4.6 7 Noroeste 12 Noroeste 0 -- -- 84
2019-02-07 01:00:00 5.3 9 Noroeste 13 Noroeste 0 -- -- 82
2019-02-07 00:00:00 7.8 9 Noroeste 14 Noroeste 0 -- -- 74
2019-02-06 23:00:00 6.4 9 Noroeste 13 Noroeste 0 -- -- 78
2019-02-06 22:00:00 7.6 13 Noroeste 17 Noroeste 0 -- -- 74
2019-02-06 21:00:00 5.8 8 Noroeste 12 Noroeste 0 -- -- 77
2019-02-06 20:00:00 8.1 6 Noroeste 10 Oeste 0 -- -- 73
2019-02-06 19:00:00 9.2 0 Calma 14 Noroeste 0 -- -- 69
2019-02-06 18:00:00 12 10 Oeste 18 Oeste 0 -- -- 56
2019-02-06 17:00:00 14.8 9 Sudeste 14 Sudeste 0 -- -- 54
2019-02-06 16:00:00 16.5 5 Sudoeste 19 Noroeste 0 -- -- 41
2019-02-06 15:00:00 16.4 5 Oeste 22 Noroeste 0 -- -- 42
2019-02-06 14:00:00 14.6 9 Oeste 17 Oeste 0 -- -- 44
2019-02-06 13:00:00 13.3 10 Noroeste 19 Noroeste 0 -- -- 55
2019-02-06 12:00:00 12.1 9 Oeste 15 Oeste 0 -- -- 57
2019-02-06 11:00:00 10.7 9 Noroeste 12 Noroeste 0 -- -- 69
2019-02-06 10:00:00 8.6 4 Este 14 Este 0 -- -- 75
2019-02-06 09:00:00 7 3 Nordeste 9 Norte 0 -- -- 78
2019-02-06 08:00:00 7.2 0 Calma 15 Noroeste 0 -- -- 80
2019-02-06 07:00:00 7.1 2 Norte 15 Oeste 0 -- -- 79
2019-02-06 06:00:00 6.4 8 Noroeste 19 Noroeste 0 -- -- 86
2019-02-06 05:00:00 3.8 6 Oeste 12 Noroeste 0 -- -- 89
2019-02-06 04:00:00 3.6 5 Noroeste 9 Noroeste 0 -- -- 87
2019-02-06 03:00:00 4.1 5 Noroeste 8 Noroeste 0 -- -- 89
2019-02-06 02:00:00 4.9 3 Noroeste 6 Noroeste 0 -- -- 88
2019-02-06 01:00:00 5.1 2 Noroeste 10 Noroeste 0 -- -- 88
2019-02-06 00:00:00 5.4 6 Noroeste 8 Noroeste 0 -- -- 87
2019-02-05 23:00:00 5.4 2 Este 8 Noroeste 0 -- -- 87
2019-02-05 22:00:00 6 3 Noroeste 6 Noroeste 0 -- -- 84
2019-02-05 21:00:00 6.3 3 Noroeste 9 Noroeste 0 -- -- 79
2019-02-05 20:00:00 6.3 5 Noroeste 8 Noroeste 0 -- -- 77
2019-02-05 19:00:00 8.3 0 Calma 6 Noroeste 0 -- -- 70
2019-02-05 18:00:00 11.2 3 Oeste 22 Noroeste 0 -- -- 59
2019-02-05 17:00:00 13.8 13 Noroeste 22 Noroeste 0 -- -- 50
2019-02-05 16:00:00 13.9 19 Oeste 28 Oeste 0 -- -- 47
2019-02-05 15:00:00 14.4 16 Oeste 26 Noroeste 0 -- -- 43
2019-02-05 14:00:00 13.9 15 Oeste 32 Oeste 0 -- -- 42
2019-02-05 13:00:00 13 9 Noroeste 32 Oeste 0 -- -- 46
2019-02-05 12:00:00 11.2 15 Noroeste 27 Oeste 0 -- -- 49
2019-02-05 11:00:00 10 12 Oeste 21 Oeste 0 -- -- 53
2019-02-05 10:00:00 7.6 6 Oeste 22 Noroeste 0 -- -- 61
2019-02-05 09:00:00 5.1 4 Oeste 15 Oeste 0 -- -- 72
2019-02-05 08:00:00 1.9 5 Oeste 8 Oeste 0 -- -- 82
2019-02-05 07:00:00 2.1 3 Oeste 9 Noroeste 0 -- -- 74
2019-02-05 06:00:00 1.9 4 Noroeste 6 Noroeste 0 -- -- 73
2019-02-05 05:00:00 3.4 2 Noroeste 8 Sudeste 0 -- -- 66
2019-02-05 04:00:00 4.6 3 Noroeste 8 Oeste 0 -- -- 60
2019-02-05 03:00:00 2.4 5 Oeste 9 Noroeste 0 -- -- 68
2019-02-05 02:00:00 3.4 2 Noroeste 10 Oeste 0 -- -- 65
2019-02-05 01:00:00 4 6 Noroeste 9 Noroeste 0 -- -- 65
2019-02-05 00:00:00 4.8 6 Noroeste 14 Noroeste 0 -- -- 62
2019-02-04 23:00:00 4.5 9 Noroeste 14 Noroeste 0 -- -- 65
2019-02-04 22:00:00 3.3 4 Noroeste 8 Noroeste 0 -- -- 65
2019-02-04 21:00:00 3.5 6 Noroeste 9 Noroeste 0 -- -- 57
2019-02-04 20:00:00 1.7 6 Noroeste 9 Noroeste 0 -- -- 63
2019-02-04 19:00:00 3.2 5 Noroeste 8 Noroeste 0 -- -- 56
2019-02-04 18:00:00 6.6 2 Sudoeste 12 Sudeste 0 -- -- 44
2019-02-04 17:00:00 9.8 8 Sudeste 14 Sur 0 -- -- 35
2019-02-04 16:00:00 11.2 9 Sudeste 17 Sudeste 0 -- -- 30
2019-02-04 15:00:00 11.3 7 Sudeste 18 Sudeste 0 -- -- 31
2019-02-04 14:00:00 11.6 7 Noroeste 21 Noroeste 0 -- -- 22
2019-02-04 13:00:00 9.6 16 Noroeste 28 Oeste 0 -- -- 25
2019-02-04 12:00:00 8 18 Oeste 28 Sudoeste 0 -- -- 25
2019-02-04 11:00:00 4.7 20 Oeste 33 Oeste 0 -- -- 40
2019-02-04 10:00:00 3.1 16 Sudoeste 25 Sudoeste 0 -- -- 39
2019-02-04 09:00:00 1.4 11 Oeste 33 Oeste 0 -- -- 43
2019-02-04 08:00:00 0.1 10 Oeste 27 Norte 0 -- -- 44
2019-02-04 07:00:00 1.7 13 Noroeste 36 Noroeste 0 -- -- 27
2019-02-04 06:00:00 1.6 17 Noroeste 43 Noroeste 0 -- -- 30
2019-02-04 05:00:00 0.6 16 Noroeste 37 Noroeste 0 -- -- 38
2019-02-04 04:00:00 0.6 26 Noroeste 47 Noroeste 0 -- -- 39
2019-02-04 03:00:00 0.9 26 Noroeste 49 Noroeste 0 -- -- 32
2019-02-04 02:00:00 0.5 22 Noroeste 44 Noroeste 0 -- -- 32
2019-02-04 01:00:00 0.7 20 Noroeste 40 Noroeste 0 -- -- 29
2019-02-04 00:00:00 1.7 19 Noroeste 44 Noroeste 0 -- -- 23
2019-02-03 23:00:00 2.4 18 Noroeste 48 Noroeste 0 -- -- 23
2019-02-03 22:00:00 2.3 26 Noroeste 42 Noroeste 0 -- -- 24
2019-02-03 21:00:00 2.7 20 Noroeste 42 Noroeste 0 -- -- 23
2019-02-03 20:00:00 3.3 20 Noroeste 45 Noroeste 0 -- -- 24
2019-02-03 19:00:00 3.8 18 Noroeste 39 Noroeste 0 -- -- 24
2019-02-03 18:00:00 4.3 17 Noroeste 34 Noroeste 0 -- -- 26
2019-02-03 17:00:00 7.2 15 Noroeste 40 Noroeste 0 -- -- 20
2019-02-03 16:00:00 7.2 21 Noroeste 52 Noroeste 0 -- -- 17
2019-02-03 15:00:00 7.5 22 Norte 51 Norte 0 -- -- 16
2019-02-03 14:00:00 7 25 Noroeste 58 Noroeste 0 -- -- 17
2019-02-03 13:00:00 6.4 30 Noroeste 56 Noroeste 0 -- -- 21
2019-02-03 12:00:00 5.1 26 Noroeste 52 Noroeste 0 -- -- 25
2019-02-03 11:00:00 4.2 21 Noroeste 45 Noroeste 0 -- -- 21
2019-02-03 10:00:00 2.7 20 Noroeste 50 Noroeste 0 -- -- 24
2019-02-03 09:00:00 1.7 18 Noroeste 46 Noroeste 0 -- -- 25
2019-02-03 08:00:00 0.3 21 Noroeste 48 Noroeste 0 -- -- 35
2019-02-03 07:00:00 0 28 Noroeste 51 Noroeste 0 -- -- 41
2019-02-03 06:00:00 0.4 26 Noroeste 44 Noroeste 0 -- -- 40
2019-02-03 05:00:00 0.3 25 Noroeste 45 Noroeste 0 -- -- 44
2019-02-03 04:00:00 -0.3 22 Noroeste 44 Noroeste 0 -- -- 53
2019-02-03 03:00:00 0 22 Noroeste 51 Noroeste 0 -- -- 55
2019-02-03 02:00:00 -0.4 28 Noroeste 47 Noroeste 0 -- -- 67
2019-02-03 01:00:00 -0.2 30 Noroeste 58 Noroeste 0 -- -- 69
2019-02-03 00:00:00 -0.1 34 Noroeste 64 Noroeste 0 -- -- 69
2019-02-02 23:00:00 0.6 35 Noroeste 69 Noroeste 0 -- -- 60
2019-02-02 22:00:00 1.3 42 Noroeste 66 Oeste 0 -- -- 55
2019-02-02 21:00:00 2.3 38 Noroeste 54 Noroeste 0 -- -- 46
2019-02-02 20:00:00 3 26 Noroeste 51 Noroeste 0 -- -- 53
2019-02-02 19:00:00 3.4 35 Noroeste 53 Noroeste 0 -- -- 58
2019-02-02 18:00:00 4.4 33 Oeste 70 Noroeste 0 -- -- 55
2019-02-02 17:00:00 6.7 33 Noroeste 76 Noroeste 0 -- -- 53
2019-02-02 16:00:00 7.2 46 Noroeste 75 Noroeste 0 -- -- 53
2019-02-02 15:00:00 6.9 48 Noroeste 71 Noroeste 0 -- -- 60
2019-02-02 14:00:00 6.7 39 Noroeste 64 Noroeste 0 -- -- 63
2019-02-02 13:00:00 4.9 43 Noroeste 67 Noroeste 0 -- -- 69
2019-02-02 12:00:00 3.4 43 Noroeste 72 Noroeste 0 -- -- 74
2019-02-02 11:00:00 3.2 49 Noroeste 78 Noroeste 0 -- -- 75
2019-02-02 10:00:00 2.7 41 Noroeste 73 Noroeste 0 -- -- 77
2019-02-02 09:00:00 3.1 43 Noroeste 80 Noroeste 0 -- -- 75
2019-02-02 08:00:00 2.8 37 Noroeste 65 Noroeste 0 -- -- 76
2019-02-02 07:00:00 2.8 37 Noroeste 55 Noroeste 0 -- -- 73
2019-02-02 06:00:00 2.8 39 Noroeste 63 Oeste 0 -- -- 73
2019-02-02 05:00:00 3 35 Oeste 63 Noroeste 0 -- -- 71
2019-02-02 04:00:00 3.3 45 Oeste 63 Noroeste 0 -- -- 70
2019-02-02 03:00:00 3.2 29 Noroeste 60 Noroeste 0 -- -- 69
2019-02-02 02:00:00 3.8 41 Noroeste 56 Noroeste 0 -- -- 66
2019-02-02 01:00:00 3.6 23 Noroeste 44 Noroeste 0 -- -- 69
2019-02-02 00:00:00 3.8 28 Noroeste 44 Noroeste 0.2 -- -- 71
2019-02-01 23:00:00 3.5 28 Noroeste 50 Noroeste 0.4 -- -- 77
2019-02-01 22:00:00 4.4 26 Noroeste 54 Noroeste 0.2 -- -- 79
2019-02-01 21:00:00 3.7 7 Noroeste 13 Oeste 0 -- -- 69
2019-02-01 20:00:00 3.3 7 Noroeste 10 Noroeste 0 -- -- 70
2019-02-01 19:00:00 5.8 0 Calma 15 Oeste 0 -- -- 60
2019-02-01 18:00:00 8.7 10 Oeste 33 Oeste 0 -- -- 49
2019-02-01 17:00:00 10.5 20 Oeste 40 Oeste 0 -- -- 45
2019-02-01 16:00:00 10.7 26 Noroeste 40 Oeste 0 -- -- 48
2019-02-01 15:00:00 9.7 24 Noroeste 50 Noroeste 0 -- -- 50
2019-02-01 14:00:00 10.2 31 Noroeste 56 Noroeste 0 -- -- 52
2019-02-01 13:00:00 10.7 34 Oeste 50 Oeste 0 -- -- 52
2019-02-01 12:00:00 9.6 17 Noroeste 46 Noroeste 0 -- -- 65
2019-02-01 11:00:00 7.8 28 Noroeste 50 Noroeste 0 -- -- 72
2019-02-01 10:00:00 6.7 21 Noroeste 42 Noroeste 1.4 -- -- 83
2019-02-01 09:00:00 7.5 27 Noroeste 42 Noroeste 0.4 -- -- 80
2019-02-01 08:00:00 8.5 15 Noroeste 36 Oeste 0 -- -- 86
2019-02-01 07:00:00 8.9 16 Oeste 35 Oeste 0 -- -- 83
2019-02-01 06:00:00 9.1 29 Oeste 53 Oeste 0.6 -- -- 81
2019-02-01 05:00:00 10 24 Oeste 41 Oeste 0 -- -- 73
2019-02-01 04:00:00 10.8 15 Oeste 26 Oeste 0 -- -- 62
2019-02-01 03:00:00 10.3 14 Noroeste 20 Noroeste 0 -- -- 66
2019-02-01 02:00:00 10.6 9 Noroeste 20 Oeste 0 -- -- 64
2019-02-01 01:00:00 10.6 10 Noroeste 18 Noroeste 0 -- -- 64
2019-02-01 00:00:00 11 8 Oeste 20 Oeste 0 -- -- 62
2019-01-31 23:00:00 11.3 8 Oeste 19 Oeste 0 -- -- 61
2019-01-31 22:00:00 11.2 13 Oeste 20 Oeste 0 -- -- 61
2019-01-31 21:00:00 7.7 11 Noroeste 14 Oeste 0 -- -- 77
2019-01-31 20:00:00 7.8 0 Calma 9 Oeste 0 -- -- 75
2019-01-31 19:00:00 9.9 6 Oeste 24 Noroeste 0 -- -- 69
2019-01-31 18:00:00 10.3 21 Noroeste 42 Noroeste 0 -- -- 67
2019-01-31 17:00:00 11.2 27 Noroeste 54 Noroeste 0 -- -- 64
2019-01-31 16:00:00 12.4 37 Noroeste 61 Noroeste 0 -- -- 59
2019-01-31 15:00:00 11.6 36 Noroeste 59 Noroeste 0 -- -- 63
2019-01-31 14:00:00 11.8 34 Oeste 62 Noroeste 0 -- -- 63
2019-01-31 13:00:00 10.8 35 Oeste 55 Noroeste 0 -- -- 66
2019-01-31 12:00:00 8.9 32 Noroeste 46 Oeste 0 -- -- 74
2019-01-31 11:00:00 8 26 Noroeste 33 Noroeste 0 -- -- 80
2019-01-31 10:00:00 5.3 13 Noroeste 19 Oeste 0 -- -- 87
2019-01-31 09:00:00 4.3 13 Noroeste 20 Oeste 0 -- -- 83
2019-01-31 08:00:00 4.3 2 Este 9 Oeste 0 -- -- 74
2019-01-31 07:00:00 4.9 3 Oeste 25 Noroeste 0 -- -- 73
2019-01-31 06:00:00 5.6 17 Oeste 26 Oeste 0 -- -- 70
2019-01-31 05:00:00 4.6 10 Oeste 24 Oeste 0 -- -- 71
2019-01-31 04:00:00 3.1 0 Calma 13 Este 0 -- -- 64
2019-01-31 03:00:00 4.6 7 Oeste 24 Oeste 0 -- -- 57
2019-01-31 02:00:00 3.5 5 Noroeste 10 Oeste 0 -- -- 58
2019-01-31 01:00:00 4.6 4 Oeste 12 Oeste 0 -- -- 51
2019-01-31 00:00:00 2.9 6 Noroeste 10 Noroeste 0 -- -- 60
2019-01-30 23:00:00 0.9 0 Calma 13 Oeste 0 -- -- 69
2019-01-30 22:00:00 2.3 7 Oeste 12 Oeste 0 -- -- 62
2019-01-30 21:00:00 3.7 3 Oeste 32 Noroeste 0 -- -- 57
2019-01-30 20:00:00 4.6 22 Noroeste 34 Noroeste 0 -- -- 54
2019-01-30 19:00:00 5.3 28 Oeste 58 Oeste 0 -- -- 49
2019-01-30 18:00:00 5.8 31 Noroeste 60 Noroeste 0 -- -- 49
2019-01-30 17:00:00 7.1 36 Noroeste 60 Noroeste 0 -- -- 49
2019-01-30 16:00:00 7.9 42 Noroeste 68 Noroeste 0 -- -- 45
2019-01-30 15:00:00 7.9 41 Noroeste 69 Noroeste 0 -- -- 47
2019-01-30 14:00:00 7.2 48 Noroeste 69 Noroeste 0 -- -- 52
2019-01-30 13:00:00 6.4 42 Noroeste 68 Noroeste 0 -- -- 55
2019-01-30 12:00:00 5.7 42 Noroeste 67 Noroeste 0 -- -- 58
2019-01-30 11:00:00 4.9 37 Noroeste 69 Noroeste 0 -- -- 57
2019-01-30 10:00:00 3.6 30 Noroeste 66 Noroeste 0 -- -- 65
2019-01-30 09:00:00 2.5 30 Noroeste 63 Noroeste 0 -- -- 71
2019-01-30 08:00:00 1.8 39 Noroeste 63 Noroeste 0 -- -- 75
2019-01-30 07:00:00 1.8 32 Noroeste 60 Noroeste 0 -- -- 73
2019-01-30 06:00:00 2 41 Noroeste 66 Noroeste 0 -- -- 74
2019-01-30 05:00:00 2.1 41 Noroeste 61 Noroeste 0 -- -- 74
2019-01-30 04:00:00 2.5 38 Noroeste 66 Noroeste 0 -- -- 72
2019-01-30 03:00:00 2.9 41 Noroeste 66 Noroeste 0 -- -- 71
2019-01-30 02:00:00 3.4 45 Noroeste 65 Noroeste 0 -- -- 70
2019-01-30 01:00:00 3.7 40 Noroeste 73 Noroeste 0 -- -- 73
2019-01-30 00:00:00 4.1 48 Noroeste 77 Noroeste 0 -- -- 72
2019-01-29 23:00:00 4.6 44 Noroeste 67 Oeste 0 -- -- 71
2019-01-29 22:00:00 4.9 39 Noroeste 66 Noroeste 0 -- -- 75
2019-01-29 21:00:00 4.9 34 Noroeste 58 Oeste 0 -- -- 76
2019-01-29 20:00:00 3.6 21 Oeste 32 Oeste 0 -- -- 83
2019-01-29 19:00:00 3.4 15 Oeste 33 Noroeste 0.4 -- -- 83
2019-01-29 18:00:00 3.7 25 Noroeste 38 Noroeste 0 -- -- 80
2019-01-29 17:00:00 4.7 26 Oeste 40 Oeste 0 -- -- 73
2019-01-29 16:00:00 5.5 22 Oeste 35 Oeste 0 -- -- 72
2019-01-29 15:00:00 5.1 21 Oeste 28 Noroeste 0 -- -- 71
2019-01-29 14:00:00 5.1 12 Oeste 22 Oeste 0 -- -- 70
2019-01-29 13:00:00 5.1 12 Noroeste 28 Noroeste 0 -- -- 69
2019-01-29 12:00:00 5.1 10 Noroeste 28 Noroeste 0 -- -- 69
2019-01-29 11:00:00 4.6 13 Noroeste 26 Noroeste 0 -- -- 69
2019-01-29 10:00:00 3.6 10 Noroeste 21 Sudoeste 0 -- -- 74
2019-01-29 09:00:00 2.6 12 Oeste 22 Oeste 0 -- -- 77
2019-01-29 08:00:00 2 7 Sudoeste 26 Oeste 0 -- -- 77
2019-01-29 07:00:00 1.8 8 Oeste 19 Oeste 0 -- -- 76
2019-01-29 06:00:00 2.1 14 Oeste 20 Oeste 0 -- -- 75
2019-01-29 05:00:00 2.2 9 Oeste 32 Oeste 0 -- -- 76
2019-01-29 04:00:00 2.8 22 Noroeste 54 Noroeste 0 -- -- 75
2019-01-29 03:00:00 3.5 31 Oeste 46 Oeste 0 -- -- 73
2019-01-29 02:00:00 3.4 27 Noroeste 47 Noroeste 0 -- -- 74
2019-01-29 01:00:00 3.5 23 Noroeste 39 Noroeste 0 -- -- 74
2019-01-29 00:00:00 3.7 27 Noroeste 44 Noroeste 0 -- -- 72
2019-01-28 23:00:00 3.9 21 Noroeste 38 Noroeste 0 -- -- 69
2019-01-28 22:00:00 4.2 22 Noroeste 36 Noroeste 0 -- -- 67
2019-01-28 21:00:00 4.8 21 Noroeste 46 Oeste 0 -- -- 68
2019-01-28 20:00:00 3.9 10 Noroeste 17 Oeste 0 -- -- 69
2019-01-28 19:00:00 5.8 5 Noroeste 18 Noroeste 0 -- -- 62
2019-01-28 18:00:00 7 8 Noroeste 22 Noroeste 0 -- -- 57
2019-01-28 17:00:00 8.9 15 Norte 36 Noroeste 0 -- -- 51
2019-01-28 16:00:00 9.6 18 Noroeste 35 Noroeste 0 -- -- 48
2019-01-28 15:00:00 10.3 13 Noroeste 57 Noroeste 0 -- -- 51
2019-01-28 14:00:00 9 32 Noroeste 70 Noroeste 0 -- -- 53
2019-01-28 13:00:00 8.2 40 Noroeste 75 Oeste 0 -- -- 57
2019-01-28 12:00:00 5.8 48 Oeste 77 Noroeste 0 -- -- 68
2019-01-28 11:00:00 4.3 42 Noroeste 77 Oeste 0 -- -- 75
2019-01-28 10:00:00 3.8 42 Noroeste 77 Noroeste 0 -- -- 71
2019-01-28 09:00:00 3.6 39 Noroeste 72 Noroeste 0 -- -- 74
2019-01-28 08:00:00 2.4 37 Noroeste 62 Noroeste 0 -- -- 74
2019-01-28 07:00:00 2.1 36 Noroeste 58 Noroeste 0 -- -- 73
2019-01-28 06:00:00 1.7 33 Noroeste 58 Noroeste 0 -- -- 75
2019-01-28 05:00:00 2 31 Noroeste 52 Noroeste 0 -- -- 73
2019-01-28 04:00:00 2 18 Noroeste 40 Noroeste 0 -- -- 73
2019-01-28 03:00:00 2.1 24 Noroeste 41 Noroeste 0 -- -- 72
2019-01-28 02:00:00 2.1 21 Noroeste 40 Noroeste 0 -- -- 72
2019-01-28 01:00:00 2.5 27 Noroeste 45 Oeste 0 -- -- 69
2019-01-28 00:00:00 2.6 22 Noroeste 41 Noroeste 0 -- -- 67
2019-01-27 23:00:00 3.1 26 Noroeste 56 Oeste 0 -- -- 63
2019-01-27 22:00:00 3.4 26 Noroeste 52 Noroeste 0 -- -- 62
2019-01-27 21:00:00 4 36 Noroeste 62 Noroeste 0 -- -- 57
2019-01-27 20:00:00 4.5 40 Noroeste 64 Noroeste 0 -- -- 58
2019-01-27 19:00:00 5.2 38 Noroeste 73 Noroeste 0 -- -- 57
2019-01-27 18:00:00 6.6 40 Noroeste 67 Oeste 0 -- -- 50
2019-01-27 17:00:00 8.6 36 Noroeste 82 Noroeste 0 -- -- 44
2019-01-27 16:00:00 10.2 38 Noroeste 67 Noroeste 0 -- -- 39
2019-01-27 15:00:00 9.3 34 Oeste 68 Noroeste 0 -- -- 45
2019-01-27 14:00:00 9.9 45 Noroeste 79 Noroeste 0 -- -- 45
2019-01-27 13:00:00 9.6 58 Noroeste 104 Noroeste 0 -- -- 46
2019-01-27 12:00:00 9.2 51 Noroeste 88 Noroeste 0 -- -- 50
2019-01-27 11:00:00 8.8 55 Noroeste 83 Noroeste 0 -- -- 52
2019-01-27 10:00:00 7.9 43 Noroeste 65 Noroeste 0 -- -- 58
2019-01-27 09:00:00 7.7 41 Noroeste 60 Noroeste 0 -- -- 58
2019-01-27 08:00:00 7.8 25 Noroeste 44 Noroeste 0 -- -- 56
2019-01-27 07:00:00 7.8 19 Noroeste 40 Noroeste 0 -- -- 55
2019-01-27 06:00:00 7.9 15 Noroeste 36 Oeste 0 -- -- 50
2019-01-27 05:00:00 7.9 17 Noroeste 31 Noroeste 0 -- -- 50
2019-01-27 04:00:00 7.7 8 Noroeste 18 Noroeste 0 -- -- 47
2019-01-27 03:00:00 6.9 3 Este 29 Noroeste 0 -- -- 60
2019-01-27 02:00:00 7.7 17 Noroeste 44 Noroeste 0 -- -- 61
2019-01-27 01:00:00 8.2 29 Oeste 45 Noroeste 0 -- -- 58
2019-01-27 00:00:00 8.1 8 Oeste 16 Oeste 0 -- -- 58
2019-01-26 23:00:00 5.6 2 Oeste 8 Noroeste 0 -- -- 74
2019-01-26 22:00:00 6.7 6 Noroeste 31 Oeste 0 -- -- 68
2019-01-26 21:00:00 7.8 19 Oeste 30 Oeste 0 -- -- 64
2019-01-26 20:00:00 6.7 4 Noroeste 20 Oeste 0 -- -- 69
2019-01-26 19:00:00 7.7 10 Oeste 19 Oeste 0 -- -- 65
2019-01-26 18:00:00 9.4 10 Oeste 23 Oeste 0 -- -- 60
2019-01-26 17:00:00 12.5 14 Noroeste 23 Noroeste 0 -- -- 49
2019-01-26 16:00:00 13.1 13 Noroeste 22 Oeste 0 -- -- 48
2019-01-26 15:00:00 14.4 11 Noroeste 21 Noroeste 0 -- -- 43
2019-01-26 14:00:00 13.8 9 Noroeste 32 Noroeste 0 -- -- 43
2019-01-26 13:00:00 12.1 16 Oeste 32 Noroeste 0 -- -- 51
2019-01-26 12:00:00 11.6 14 Noroeste 37 Oeste 0 -- -- 48
2019-01-26 11:00:00 9.1 30 Noroeste 41 Oeste 0 -- -- 60
2019-01-26 10:00:00 7.1 20 Oeste 39 Oeste 0 -- -- 69
2019-01-26 09:00:00 6.1 27 Oeste 39 Oeste 0 -- -- 73
2019-01-26 08:00:00 5.7 18 Oeste 35 Noroeste 0 -- -- 73
2019-01-26 07:00:00 5.8 13 Oeste 33 Oeste 0 -- -- 71
2019-01-26 06:00:00 5.9 24 Noroeste 47 Noroeste 0 -- -- 73
2019-01-26 05:00:00 6 16 Noroeste 40 Noroeste 0 -- -- 71
2019-01-26 04:00:00 6.4 17 Noroeste 42 Norte 0 -- -- 68
2019-01-26 03:00:00 6.9 17 Noroeste 38 Noroeste 0 -- -- 65
2019-01-26 02:00:00 7.9 24 Noroeste 46 Noroeste 0 -- -- 57
2019-01-26 01:00:00 8 15 Noroeste 34 Norte 0 -- -- 56
2019-01-26 00:00:00 7.3 20 Noroeste 43 Noroeste 0 -- -- 62
2019-01-25 23:00:00 7.2 19 Noroeste 37 Noroeste 0 -- -- 64
2019-01-25 22:00:00 7.5 17 Noroeste 35 Noroeste 0 -- -- 64
2019-01-25 21:00:00 8.5 19 Noroeste 33 Noroeste 0 -- -- 60
2019-01-25 20:00:00 10 17 Noroeste 33 Noroeste 0 -- -- 51
2019-01-25 19:00:00 11.2 19 Noroeste 40 Noroeste 0 -- -- 48
2019-01-25 18:00:00 12.1 18 Noroeste 46 Oeste 0 -- -- 45
2019-01-25 17:00:00 14.1 26 Noroeste 49 Noroeste 0 -- -- 38
2019-01-25 16:00:00 14.4 30 Noroeste 52 Noroeste 0 -- -- 37
2019-01-25 15:00:00 14 24 Noroeste 45 Noroeste 0 -- -- 39
2019-01-25 14:00:00 12 34 Noroeste 52 Noroeste 0 -- -- 42
2019-01-25 13:00:00 11 28 Noroeste 46 Noroeste 0 -- -- 45
2019-01-25 12:00:00 10.2 19 Noroeste 38 Noroeste 0 -- -- 49
2019-01-25 11:00:00 8.5 18 Noroeste 32 Noroeste 0 -- -- 48
2019-01-25 10:00:00 7.2 16 Noroeste 29 Noroeste 0 -- -- 48
2019-01-25 09:00:00 5 13 Noroeste 21 Noroeste 0 -- -- 48
2019-01-25 08:00:00 4.1 12 Noroeste 21 Oeste 0 -- -- 46
2019-01-25 07:00:00 3.4 13 Noroeste 29 Noroeste 0 -- -- 45
2019-01-25 06:00:00 3.2 18 Noroeste 32 Noroeste 0 -- -- 36
2019-01-25 05:00:00 3.7 18 Noroeste 37 Noroeste 0 -- -- 30
2019-01-25 04:00:00 3.3 10 Noroeste 37 Noroeste 0 -- -- 24
2019-01-25 03:00:00 3.5 21 Noroeste 39 Noroeste 0 -- -- 23
2019-01-25 02:00:00 3.8 23 Noroeste 59 Noroeste 0 -- -- 18
2019-01-25 01:00:00 3.8 30 Noroeste 55 Noroeste 0 -- -- 17
2019-01-25 00:00:00 3.4 7 Norte 33 Noroeste 0 -- -- 16
2019-01-24 23:00:00 3.2 12 Noroeste 42 Noroeste 0 -- -- 17
2019-01-24 22:00:00 3 23 Noroeste 45 Noroeste 0 -- -- 20
2019-01-24 21:00:00 2.5 23 Noroeste 48 Noroeste 0 -- -- 24
2019-01-24 20:00:00 2.9 19 Noroeste 46 Noroeste 0 -- -- 24
2019-01-24 19:00:00 3 28 Noroeste 50 Noroeste 0 -- -- 25
2019-01-24 18:00:00 3.6 18 Noroeste 52 Noroeste 0 -- -- 24
2019-01-24 17:00:00 5.1 22 Noroeste 59 Noroeste 0 -- -- 21
2019-01-24 16:00:00 6.9 29 Noroeste 67 Noroeste 0 -- -- 22
2019-01-24 15:00:00 6.9 37 Noroeste 58 Noroeste 0 -- -- 22
2019-01-24 14:00:00 6.6 30 Noroeste 67 Noroeste 0 -- -- 22
2019-01-24 13:00:00 6.2 25 Noroeste 57 Norte 0 -- -- 26
2019-01-24 12:00:00 4.9 27 Noroeste 64 Noroeste 0 -- -- 30
2019-01-24 11:00:00 4.2 26 Norte 54 Norte 0 -- -- 29
2019-01-24 10:00:00 3.5 18 Norte 51 Norte 0 -- -- 30
2019-01-24 09:00:00 2.6 17 Norte 48 Norte 0 -- -- 31
2019-01-24 08:00:00 1.6 20 Noroeste 48 Norte 0 -- -- 34
2019-01-24 07:00:00 1.5 22 Noroeste 51 Noroeste 0 -- -- 35
2019-01-24 06:00:00 1.8 26 Noroeste 51 Noroeste 0 -- -- 34
2019-01-24 05:00:00 2.1 30 Noroeste 55 Noroeste 0 -- -- 40
2019-01-24 04:00:00 1.9 22 Noroeste 59 Noroeste 0 -- -- 48
2019-01-24 03:00:00 1.3 20 Noroeste 44 Noroeste 0 -- -- 63
2019-01-24 02:00:00 1 12 Noroeste 27 Norte 0 -- -- 70
2019-01-24 01:00:00 1.6 12 Noroeste 31 Noroeste 0 -- -- 69
2019-01-24 00:00:00 2.3 15 Noroeste 33 Noroeste 0 -- -- 64
2019-01-23 23:00:00 2.3 10 Noroeste 22 Norte 0 -- -- 67
2019-01-23 22:00:00 3 10 Noroeste 27 Noroeste 0 -- -- 70
2019-01-23 21:00:00 3.8 12 Noroeste 34 Noroeste 0 -- -- 67
2019-01-23 20:00:00 4.4 20 Noroeste 39 Noroeste 0 -- -- 64
2019-01-23 19:00:00 5.1 15 Norte 30 Noroeste 0 -- -- 63
2019-01-23 18:00:00 5.7 17 Noroeste 44 Noroeste 0 -- -- 65
2019-01-23 17:00:00 6.2 26 Noroeste 53 Noroeste 0 -- -- 72
2019-01-23 16:00:00 6.9 32 Noroeste 59 Noroeste 0 -- -- 67
2019-01-23 15:00:00 6.2 36 Noroeste 58 Noroeste 0 -- -- 71
2019-01-23 14:00:00 6.8 33 Noroeste 48 Noroeste 0 -- -- 67
2019-01-23 13:00:00 5.4 31 Noroeste 51 Noroeste 0 -- -- 74
2019-01-23 12:00:00 3.5 32 Noroeste 49 Noroeste 0 -- -- 85
2019-01-23 11:00:00 4 22 Noroeste 41 Noroeste 0.2 -- -- 85
2019-01-23 10:00:00 2.8 24 Noroeste 49 Noroeste 0.2 -- -- 85
2019-01-23 09:00:00 2.2 31 Noroeste 56 Noroeste 0.6 -- -- 84
2019-01-23 08:00:00 3 40 Noroeste 62 Noroeste 0 -- -- 81
2019-01-23 07:00:00 2.3 32 Noroeste 59 Noroeste 0 -- -- 82
2019-01-23 06:00:00 2.2 32 Noroeste 58 Noroeste 0 -- -- 82
2019-01-23 05:00:00 2.2 31 Noroeste 50 Noroeste 0 -- -- 80
2019-01-23 04:00:00 2 28 Noroeste 57 Noroeste 0 -- -- 81
2019-01-23 03:00:00 2 35 Noroeste 57 Noroeste 0 -- -- 79
2019-01-23 02:00:00 2.1 28 Noroeste 52 Noroeste 0 -- -- 77
2019-01-23 01:00:00 1.7 15 Oeste 33 Oeste 0 -- -- 77
2019-01-23 00:00:00 2.2 19 Noroeste 41 Noroeste 0 -- -- 76
2019-01-22 23:00:00 2.2 19 Noroeste 33 Noroeste 0 -- -- 80
2019-01-22 22:00:00 2.7 22 Noroeste 43 Noroeste 0 -- -- 79
2019-01-22 21:00:00 2.9 24 Noroeste 49 Noroeste 0 -- -- 81
2019-01-22 20:00:00 3.1 28 Noroeste 50 Noroeste 0 -- -- 81
2019-01-22 19:00:00 3.1 35 Noroeste 52 Noroeste 0 -- -- 82
2019-01-22 18:00:00 2.8 21 Noroeste 54 Noroeste 0 -- -- 82
2019-01-22 17:00:00 3.9 36 Noroeste 58 Noroeste 0 -- -- 72
2019-01-22 16:00:00 5.6 21 Noroeste 44 Noroeste 0 -- -- 50
2019-01-22 15:00:00 5.1 26 Noroeste 40 Noroeste 0 -- -- 46
2019-01-22 14:00:00 6.1 20 Noroeste 41 Noroeste 0 -- -- 40
2019-01-22 13:00:00 5.9 18 Noroeste 36 Noroeste 0 -- -- 43
2019-01-22 12:00:00 4.3 14 Noroeste 27 Oeste 0 -- -- 49
2019-01-22 11:00:00 2.8 12 Noroeste 25 Oeste 0 -- -- 50
2019-01-22 10:00:00 2.2 10 Oeste 22 Noroeste 0 -- -- 48
2019-01-22 09:00:00 0.3 9 Noroeste 17 Noroeste 0 -- -- 56
2019-01-22 08:00:00 -0.6 9 Norte 15 Noroeste 0 -- -- 61
2019-01-22 07:00:00 -0.8 11 Oeste 23 Oeste 0 -- -- 61
2019-01-22 06:00:00 -1.3 9 Noroeste 18 Noroeste 0 -- -- 65
2019-01-22 05:00:00 -1.5 9 Noroeste 19 Noroeste 0 -- -- 70
2019-01-22 04:00:00 -0.5 14 Noroeste 22 Oeste 0 -- -- 66
2019-01-22 03:00:00 -0.8 11 Oeste 21 Oeste 0 -- -- 73
2019-01-22 02:00:00 0.2 13 Oeste 22 Oeste 0 -- -- 69
2019-01-22 01:00:00 -0.3 10 Noroeste 15 Noroeste 0 -- -- 75
2019-01-22 00:00:00 1 8 Noroeste 16 Oeste 0 -- -- 69
2019-01-21 23:00:00 1.7 10 Noroeste 22 Noroeste 0 -- -- 68
2019-01-21 22:00:00 2.3 11 Noroeste 31 Norte 0 -- -- 67
2019-01-21 21:00:00 1.8 7 Noroeste 14 Oeste 0 -- -- 71
2019-01-21 20:00:00 0.8 6 Noroeste 10 Noroeste 0 -- -- 74
2019-01-21 19:00:00 2.3 0 Calma 8 Oeste 0 -- -- 71
2019-01-21 18:00:00 4.1 4 Noroeste 21 Oeste 0 -- -- 68
2019-01-21 17:00:00 7 18 Noroeste 32 Noroeste 0 -- -- 56
2019-01-21 16:00:00 7 18 Noroeste 27 Noroeste 0 -- -- 58
2019-01-21 15:00:00 7.9 12 Noroeste 26 Noroeste 0 -- -- 56
2019-01-21 14:00:00 7.2 10 Norte 27 Noroeste 0 -- -- 60
2019-01-21 13:00:00 6.6 10 Noroeste 26 Noroeste 0 -- -- 59
2019-01-21 12:00:00 4.6 11 Norte 24 Noroeste 0 -- -- 72
2019-01-21 11:00:00 3.7 10 Noroeste 22 Noroeste 0 -- -- 79
2019-01-21 10:00:00 3.3 3 Noroeste 11 Oeste 0 -- -- 78
2019-01-21 09:00:00 1.5 5 Oeste 10 Noroeste 0 -- -- 87
2019-01-21 08:00:00 0.6 8 Noroeste 14 Oeste 0 -- -- 88
2019-01-21 07:00:00 1.2 12 Noroeste 21 Noroeste 0 -- -- 88
2019-01-21 06:00:00 1.1 9 Noroeste 15 Noroeste 0 -- -- 90
2019-01-21 05:00:00 0.7 7 Noroeste 12 Noroeste 0 -- -- 89
2019-01-21 04:00:00 0.9 7 Noroeste 11 Noroeste 0 -- -- 90
2019-01-21 03:00:00 1.5 5 Noroeste 11 Noroeste 0 -- -- 89
2019-01-21 02:00:00 1.2 4 Oeste 6 Noroeste 0 -- -- 89
2019-01-21 01:00:00 1 2 Norte 5 Noroeste 0 -- -- 88
2019-01-21 00:00:00 1.6 5 Noroeste 7 Noroeste 0 -- -- 87
2019-01-20 23:00:00 3 0 Calma 10 Noroeste 0 -- -- 85
2019-01-20 22:00:00 1.7 8 Noroeste 11 Noroeste 0 -- -- 88
2019-01-20 21:00:00 1 6 Noroeste 9 Noroeste 0 -- -- 88
2019-01-20 20:00:00 1.6 3 Noroeste 6 Noroeste 0 -- -- 87
2019-01-20 19:00:00 3.1 5 Noroeste 9 Noroeste 0 -- -- 84
2019-01-20 18:00:00 4.1 6 Noroeste 14 Norte 0 -- -- 81
2019-01-20 17:00:00 5.3 4 Noroeste 11 Norte 0 -- -- 79
2019-01-20 16:00:00 5.6 3 Norte 13 Norte 0 -- -- 78
2019-01-20 15:00:00 5.6 4 Norte 19 Nordeste 0 -- -- 78
2019-01-20 14:00:00 5.6 9 Nordeste 27 Nordeste 0 -- -- 74
2019-01-20 13:00:00 5.1 16 Nordeste 31 Nordeste 0.2 -- -- 80
2019-01-20 12:00:00 4.5 11 Nordeste 23 Nordeste 1.4 -- -- 85
2019-01-20 11:00:00 4.3 9 Nordeste 20 Nordeste 1.6 -- -- 86
2019-01-20 10:00:00 4 6 Nordeste 18 Norte 0.8 -- -- 88
2019-01-20 09:00:00 3.6 8 Nordeste 20 Nordeste 0.6 -- -- 89
2019-01-20 08:00:00 3.4 2 Nordeste 14 Este 1.4 -- -- 90
2019-01-20 07:00:00 3.4 0 Calma 6 Este 1.2 -- -- 90
2019-01-20 06:00:00 3.3 6 Este 14 Este 0.6 -- -- 90
2019-01-20 05:00:00 3.7 6 Este 8 Este 0.6 -- -- 89
2019-01-20 04:00:00 3.8 0 Calma 3 Oeste 1.2 -- -- 89
2019-01-20 03:00:00 3.6 0 Calma 7 Este 0.6 -- -- 88
2019-01-20 02:00:00 3.6 5 Este 14 Sudeste 0.8 -- -- 85
2019-01-20 01:00:00 5.4 3 Oeste 12 Sudoeste 0 -- -- 83
2019-01-20 00:00:00 5.1 5 Oeste 11 Sudoeste 0 -- -- 77
2019-01-19 23:00:00 4.8 10 Oeste 15 Oeste 0 -- -- 75
2019-01-19 22:00:00 4.1 8 Oeste 15 Oeste 0 -- -- 76
2019-01-19 21:00:00 2.2 4 Noroeste 9 Noroeste 0 -- -- 80
2019-01-19 20:00:00 1.6 5 Noroeste 9 Noroeste 0 -- -- 80
2019-01-19 19:00:00 2.4 2 Noroeste 12 Noroeste 0 -- -- 77
2019-01-19 18:00:00 4.1 9 Noroeste 15 Noroeste 0 -- -- 72
2019-01-19 17:00:00 6.3 10 Noroeste 17 Oeste 0 -- -- 57
2019-01-19 16:00:00 8.7 6 Sudeste 13 Sudeste 0 -- -- 61
2019-01-19 15:00:00 10.3 5 Sur 10 Este 0 -- -- 49
2019-01-19 14:00:00 6.6 3 Sudeste 14 Sudeste 0 -- -- 65
2019-01-19 13:00:00 6.1 4 Este 11 Este 0 -- -- 69
2019-01-19 12:00:00 6 6 Este 12 Nordeste 0 -- -- 65
2019-01-19 11:00:00 4.8 9 Este 12 Este 0 -- -- 71
2019-01-19 10:00:00 1.9 0 Calma 9 Noroeste 0 -- -- 82
2019-01-19 09:00:00 -1.2 4 Noroeste 10 Noroeste 0 -- -- 87
2019-01-19 08:00:00 -1.9 5 Noroeste 9 Noroeste 0 -- -- 88
2019-01-19 07:00:00 -0.9 6 Noroeste 16 Oeste 0 -- -- 88
2019-01-19 06:00:00 -0.5 8 Oeste 15 Noroeste 0 -- -- 87
2019-01-19 05:00:00 -0.3 9 Noroeste 14 Oeste 0 -- -- 84
2019-01-19 04:00:00 0.4 3 Oeste 12 Sudoeste 0 -- -- 84
2019-01-19 03:00:00 0.9 6 Noroeste 18 Noroeste 0 -- -- 83
2019-01-19 02:00:00 1.3 2 Oeste 16 Sudoeste 0 -- -- 83
2019-01-19 01:00:00 2.2 14 Oeste 27 Oeste 0 -- -- 81
2019-01-19 00:00:00 2.5 14 Oeste 22 Oeste 0 -- -- 79